createdAt,value
2023-02-03T00:00:01.060Z,101423.13
2023-02-03T00:02:02.634Z,101416.50
2023-02-03T00:04:04.192Z,101421.94
2023-02-03T00:06:05.835Z,101407.63
2023-02-03T00:08:08.793Z,101417.84
2023-02-03T00:10:10.734Z,101420.56
2023-02-03T00:12:12.135Z,101422.84
2023-02-03T00:14:13.893Z,101417.31
2023-02-03T00:16:15.328Z,101398.00
2023-02-03T00:18:16.760Z,101416.72
2023-02-03T00:20:18.822Z,101379.91
2023-02-03T00:22:20.215Z,101418.97
2023-02-03T00:24:21.730Z,101428.16
2023-02-03T00:26:23.343Z,101424.94
2023-02-03T00:28:24.728Z,101422.56
2023-02-03T00:30:27.039Z,101393.78
2023-02-03T00:32:29.415Z,101430.03
2023-02-03T00:34:31.407Z,101435.28
2023-02-03T00:36:33.107Z,101426.00
2023-02-03T00:38:34.840Z,101411.81
2023-02-03T00:40:36.226Z,101403.81
2023-02-03T00:42:37.651Z,101437.25
2023-02-03T00:44:39.219Z,101440.00
2023-02-03T00:46:40.681Z,101437.66
2023-02-03T00:48:42.096Z,101400.13
2023-02-03T00:50:46.963Z,101434.44
2023-02-03T00:52:48.377Z,101424.91
2023-02-03T00:54:49.777Z,101421.69
2023-02-03T00:56:51.511Z,101399.59
2023-02-03T00:58:52.930Z,101384.56
2023-02-03T01:00:55.715Z,101411.50
2023-02-03T01:02:57.438Z,101381.09
2023-02-03T01:04:58.848Z,101382.63
2023-02-03T01:07:00.248Z,101405.34
2023-02-03T01:09:03.470Z,101381.28
2023-02-03T01:11:15.266Z,101376.69
2023-02-03T01:13:16.650Z,101358.91
2023-02-03T01:15:18.267Z,101398.38
2023-02-03T01:17:19.684Z,101393.84
2023-02-03T01:19:21.605Z,101383.00
2023-02-03T01:21:25.570Z,101373.47
2023-02-03T01:23:27.393Z,101394.69
2023-02-03T01:25:28.801Z,101392.94
2023-02-03T01:27:32.585Z,101389.09
2023-02-03T01:29:34.072Z,101359.22
2023-02-03T01:31:40.846Z,101380.72
2023-02-03T01:33:43.003Z,101379.03
2023-02-03T01:35:44.423Z,101335.06
2023-02-03T01:37:45.804Z,101348.50
2023-02-03T01:39:47.470Z,101330.97
2023-02-03T01:41:48.963Z,101376.38
2023-02-03T01:43:54.106Z,101372.00
2023-02-03T01:45:55.719Z,101368.44
2023-02-03T01:47:59.577Z,101369.97
2023-02-03T01:50:11.257Z,101363.06
2023-02-03T01:52:13.148Z,101356.44
2023-02-03T01:54:39.187Z,101378.78
2023-02-03T01:56:45.154Z,101372.00
2023-02-03T01:58:49.513Z,101373.59
2023-02-03T02:00:52.331Z,101352.66
2023-02-03T02:02:54.069Z,101355.69
2023-02-03T02:05:03.462Z,101366.28
2023-02-03T02:07:06.368Z,101357.91
2023-02-03T02:09:08.590Z,101349.94
2023-02-03T02:11:10.685Z,101352.19
2023-02-03T02:13:13.191Z,101324.59
2023-02-03T02:15:14.917Z,101344.69
2023-02-03T02:17:50.292Z,101334.31
2023-02-03T02:20:30.802Z,101320.41
2023-02-03T02:23:19.203Z,101324.19
2023-02-03T02:25:39.217Z,101323.56
2023-02-03T02:28:21.236Z,101303.41
2023-02-03T02:30:34.511Z,101328.06
2023-02-03T02:32:57.551Z,101328.00
2023-02-03T02:35:07.751Z,101331.31
2023-02-03T02:37:26.463Z,101336.38
2023-02-03T02:39:53.336Z,101336.97
2023-02-03T02:42:19.820Z,101343.16
2023-02-03T02:44:26.905Z,101347.53
2023-02-03T02:46:37.989Z,101343.03
2023-02-03T02:48:52.794Z,101339.34
2023-02-03T02:50:57.671Z,101333.31
2023-02-03T02:52:59.666Z,101296.25
2023-02-03T02:55:07.914Z,101313.69
2023-02-03T02:57:12.931Z,101308.34
2023-02-03T02:59:14.889Z,101301.03
2023-02-03T03:01:16.995Z,101275.81
2023-02-03T03:03:23.635Z,101304.13
2023-02-03T03:05:26.810Z,101293.34
2023-02-03T03:07:30.827Z,101267.00
2023-02-03T03:09:44.146Z,101291.66
2023-02-03T03:11:51.321Z,101278.94
2023-02-03T03:13:55.323Z,101264.78
2023-02-03T03:15:58.400Z,101259.06
2023-02-03T03:18:10.464Z,101279.19
2023-02-03T03:20:20.176Z,101256.50
2023-02-03T03:22:27.363Z,101279.44
2023-02-03T03:24:32.564Z,101277.84
2023-02-03T03:26:50.005Z,101273.97
2023-02-03T03:29:11.112Z,101286.69
2023-02-03T03:31:12.710Z,101286.81
2023-02-03T03:33:14.370Z,101264.59
2023-02-03T03:35:16.727Z,101274.22
2023-02-03T03:37:35.133Z,101272.28
2023-02-03T03:39:52.414Z,101273.31
2023-02-03T03:42:04.925Z,101269.38
2023-02-03T03:44:13.083Z,101259.56
2023-02-03T03:46:21.504Z,101267.38
2023-02-03T03:48:37.219Z,101263.84
2023-02-03T03:50:45.398Z,101225.00
2023-02-03T03:52:49.968Z,101267.25
2023-02-03T03:54:54.575Z,101265.31
2023-02-03T03:57:18.499Z,101251.88
2023-02-03T03:59:24.218Z,101253.50
2023-02-03T04:01:26.393Z,101257.91
2023-02-03T04:03:50.321Z,101254.09
2023-02-03T04:05:51.904Z,101236.34
2023-02-03T04:07:53.524Z,101242.56
2023-02-03T04:09:54.924Z,101236.31
2023-02-03T04:11:56.598Z,101227.06
2023-02-03T04:13:58.058Z,101242.50
2023-02-03T04:15:59.516Z,101223.84
2023-02-03T04:18:01.865Z,101237.41
2023-02-03T04:20:04.729Z,101237.00
2023-02-03T04:22:06.299Z,101235.00
2023-02-03T04:24:08.052Z,101218.13
2023-02-03T04:26:09.452Z,101235.00
2023-02-03T04:28:10.882Z,101225.13
2023-02-03T04:30:13.963Z,101209.50
2023-02-03T04:32:15.358Z,101232.19
2023-02-03T04:34:16.755Z,101229.84
2023-02-03T04:36:18.559Z,101200.25
2023-02-03T04:38:19.954Z,101226.00
2023-02-03T04:40:21.460Z,101226.13
2023-02-03T04:42:23.679Z,101193.50
2023-02-03T04:44:25.104Z,101223.22
2023-02-03T04:46:26.494Z,101230.13
2023-02-03T04:48:28.257Z,101222.94
2023-02-03T04:50:29.627Z,101228.09
2023-02-03T04:52:32.027Z,101182.13
2023-02-03T04:54:33.769Z,101213.00
2023-02-03T04:56:35.203Z,101208.03
2023-02-03T04:58:37.137Z,101218.78
2023-02-03T05:00:38.866Z,101187.22
2023-02-03T05:02:40.290Z,101222.78
2023-02-03T05:04:41.730Z,101201.47
2023-02-03T05:06:43.344Z,101176.25
2023-02-03T05:08:44.767Z,101201.25
2023-02-03T05:10:48.636Z,101163.88
2023-02-03T05:12:50.325Z,101188.88
2023-02-03T05:14:51.728Z,101158.47
2023-02-03T05:16:53.193Z,101178.47
2023-02-03T05:18:54.977Z,101167.44
2023-02-03T05:20:56.408Z,101167.16
2023-02-03T05:22:58.535Z,101140.59
2023-02-03T05:25:00.167Z,101134.84
2023-02-03T05:27:01.605Z,101154.97
2023-02-03T05:29:03.685Z,101155.53
2023-02-03T05:31:06.006Z,101142.81
2023-02-03T05:33:07.536Z,101136.78
2023-02-03T05:35:09.017Z,101147.97
2023-02-03T05:37:10.529Z,101151.25
2023-02-03T05:39:11.953Z,101142.59
2023-02-03T05:41:13.445Z,101140.78
2023-02-03T05:43:15.199Z,101137.66
2023-02-03T05:45:17.362Z,101130.56
2023-02-03T05:47:18.786Z,101125.22
2023-02-03T05:49:20.482Z,101100.38
2023-02-03T05:51:21.892Z,101128.84
2023-02-03T05:53:23.532Z,101121.25
2023-02-03T05:55:25.340Z,101101.72
2023-02-03T05:57:26.789Z,101105.16
2023-02-03T05:59:28.202Z,101122.25
2023-02-03T06:01:29.863Z,101109.41
2023-02-03T06:03:31.302Z,101054.41
2023-02-03T06:05:34.223Z,101109.34
2023-02-03T06:07:36.015Z,101094.94
2023-02-03T06:09:37.411Z,101095.81
2023-02-03T06:11:38.810Z,101121.63
2023-02-03T06:13:40.424Z,101100.22
2023-02-03T06:15:42.683Z,101089.16
2023-02-03T06:17:45.978Z,101114.81
2023-02-03T06:19:47.700Z,101104.78
2023-02-03T06:21:49.097Z,101089.16
2023-02-03T06:23:50.519Z,101106.94
2023-02-03T06:25:52.410Z,101078.63
2023-02-03T06:27:53.832Z,101102.25
2023-02-03T06:29:55.260Z,101099.31
2023-02-03T06:31:56.894Z,101082.91
2023-02-03T06:33:58.413Z,101096.84
2023-02-03T06:35:59.840Z,101084.38
2023-02-03T06:38:01.424Z,101076.47
2023-02-03T06:40:03.628Z,101071.34
2023-02-03T06:42:05.052Z,101039.88
2023-02-03T06:44:06.879Z,101063.09
2023-02-03T06:46:08.315Z,101050.19
2023-02-03T06:48:09.741Z,101054.22
2023-02-03T06:50:14.419Z,101047.41
2023-02-03T06:52:15.826Z,101025.28
2023-02-03T06:54:17.214Z,101041.19
2023-02-03T06:56:18.757Z,101040.66
2023-02-03T06:58:20.147Z,101000.06
2023-02-03T07:00:21.710Z,101033.91
2023-02-03T07:02:23.399Z,101026.28
2023-02-03T07:04:24.935Z,101025.03
2023-02-03T07:06:26.368Z,101025.94
2023-02-03T07:08:27.865Z,101020.97
2023-02-03T07:10:29.497Z,100985.88
2023-02-03T07:12:31.804Z,101014.31
2023-02-03T07:14:33.338Z,101005.28
2023-02-03T07:16:34.718Z,101004.78
2023-02-03T07:18:46.768Z,100992.41
2023-02-03T07:20:48.801Z,100986.00
2023-02-03T07:22:55.631Z,100974.72
2023-02-03T07:24:57.191Z,100975.81
2023-02-03T07:26:59.081Z,100964.03
2023-02-03T07:29:00.504Z,100966.28
2023-02-03T07:31:03.212Z,100958.00
2023-02-03T07:33:04.952Z,100958.47
2023-02-03T07:35:06.497Z,100955.06
2023-02-03T07:37:07.900Z,100963.22
2023-02-03T07:39:10.044Z,100949.34
2023-02-03T07:41:11.460Z,100944.75
2023-02-03T07:43:12.896Z,100932.09
2023-02-03T07:45:16.675Z,100947.81
2023-02-03T07:47:18.133Z,100939.81
2023-02-03T07:49:19.692Z,100917.44
2023-02-03T07:51:21.287Z,100891.13
2023-02-03T07:53:22.680Z,100935.91
2023-02-03T07:55:24.155Z,100930.94
2023-02-03T07:57:25.628Z,100924.25
2023-02-03T07:59:26.999Z,100905.84
2023-02-03T08:01:28.555Z,100917.59
2023-02-03T08:03:31.122Z,100913.44
2023-02-03T08:05:32.631Z,100908.31
2023-02-03T08:07:34.111Z,100876.84
2023-02-03T08:09:37.314Z,100875.31
2023-02-03T08:11:38.701Z,100885.88
2023-02-03T08:13:40.119Z,100884.50
2023-02-03T08:15:41.738Z,100858.38
2023-02-03T08:17:43.139Z,100866.25
2023-02-03T08:19:44.675Z,100842.84
2023-02-03T08:21:46.240Z,100850.31
2023-02-03T08:23:47.652Z,100862.78
2023-02-03T08:25:53.061Z,100858.41
2023-02-03T08:27:54.571Z,100855.34
2023-02-03T08:29:56.049Z,100828.19
2023-02-03T08:31:57.474Z,100835.41
2023-02-03T08:36:18.291Z,100830.03
2023-02-03T08:38:19.836Z,100824.91
2023-02-03T08:40:21.377Z,100814.13
2023-02-03T08:42:22.919Z,100801.88
2023-02-03T08:44:24.327Z,100800.63
2023-02-03T08:46:25.771Z,100792.97
2023-02-03T08:48:27.400Z,100800.44
2023-02-03T08:50:29.147Z,100798.47
2023-02-03T08:52:31.015Z,100767.66
2023-02-03T08:54:33.089Z,100757.63
2023-02-03T08:56:34.492Z,100746.00
2023-02-03T08:58:36.803Z,100766.81
2023-02-03T09:00:39.893Z,100768.59
2023-02-03T09:02:44.199Z,100760.25
2023-02-03T09:04:46.635Z,100759.09
2023-02-03T09:06:48.587Z,100743.75
2023-02-03T09:08:50.361Z,100760.84
2023-02-03T09:10:51.867Z,100716.13
2023-02-03T09:12:53.294Z,100727.44
2023-02-03T09:14:54.667Z,100739.72
2023-02-03T09:16:56.389Z,100742.47
2023-02-03T09:18:57.919Z,100746.34
2023-02-03T09:21:03.557Z,100741.91
2023-02-03T09:23:05.111Z,100724.06
2023-02-03T09:25:07.628Z,100713.19
2023-02-03T09:27:09.113Z,100727.16
2023-02-03T09:29:10.660Z,100702.00
2023-02-03T09:31:16.309Z,100705.84
2023-02-03T09:33:17.728Z,100711.56
2023-02-03T09:35:19.427Z,100670.25
2023-02-03T09:37:21.146Z,100691.53
2023-02-03T09:39:22.586Z,100662.69
2023-02-03T09:41:49.712Z,100684.34
2023-02-03T09:44:07.871Z,100659.16
2023-02-03T09:46:22.855Z,100649.28
2023-02-03T09:48:32.663Z,100601.19
2023-02-03T09:50:37.706Z,100657.78
2023-02-03T09:52:41.320Z,100649.09
2023-02-03T09:54:42.639Z,100643.31
2023-02-03T09:56:44.699Z,100615.78
2023-02-03T09:58:46.156Z,100601.56
2023-02-03T10:00:55.065Z,100616.56
2023-02-03T10:03:08.686Z,100606.38
2023-02-03T10:05:22.512Z,100600.66
2023-02-03T10:07:46.715Z,100596.22
2023-02-03T10:10:05.665Z,100553.59
2023-02-03T10:12:34.515Z,100578.00
2023-02-03T10:14:43.592Z,100569.28
2023-02-03T10:17:23.973Z,100568.28
2023-02-03T10:19:44.505Z,100533.13
2023-02-03T10:21:54.054Z,100537.16
2023-02-03T10:23:57.650Z,100534.06
2023-02-03T10:26:01.310Z,100520.75
2023-02-03T10:28:09.512Z,100519.75
2023-02-03T10:30:34.019Z,100521.22
2023-02-03T10:32:35.582Z,100507.53
2023-02-03T10:34:37.871Z,100472.44
2023-02-03T10:36:48.388Z,100492.69
2023-02-03T10:39:08.434Z,100473.75
2023-02-03T10:41:10.179Z,100477.56
2023-02-03T10:43:11.906Z,100463.50
2023-02-03T10:45:13.343Z,100442.41
2023-02-03T10:47:17.687Z,100453.44
2023-02-03T10:49:19.426Z,100437.84
2023-02-03T10:51:28.098Z,100442.41
2023-02-03T10:53:35.049Z,100427.69
2023-02-03T10:55:36.657Z,100426.06
2023-02-03T10:57:38.599Z,100402.13
2023-02-03T10:59:45.291Z,100411.94
2023-02-03T11:01:49.573Z,100401.22
2023-02-03T11:03:55.310Z,100391.75
2023-02-03T11:06:15.287Z,100395.81
2023-02-03T11:08:17.767Z,100364.91
2023-02-03T11:10:33.778Z,100378.16
2023-02-03T11:12:35.406Z,100358.69
2023-02-03T11:14:39.784Z,100366.16
2023-02-03T11:16:44.298Z,100352.38
2023-02-03T11:19:06.761Z,100331.22
2023-02-03T11:21:21.704Z,100342.78
2023-02-03T11:23:23.612Z,100333.88
2023-02-03T11:25:28.491Z,100326.28
2023-02-03T11:27:33.064Z,100320.97
2023-02-03T11:29:37.514Z,100304.19
2023-02-03T11:31:39.055Z,100306.69
2023-02-03T11:33:40.684Z,100297.19
2023-02-03T11:35:58.126Z,100303.09
2023-02-03T11:38:02.004Z,100301.94
2023-02-03T11:40:09.663Z,100291.44
2023-02-03T11:42:23.156Z,100278.41
2023-02-03T11:44:29.840Z,100270.19
2023-02-03T11:46:36.792Z,100268.06
2023-02-03T11:48:56.265Z,100263.41
2023-02-03T11:51:18.837Z,100245.69
2023-02-03T11:53:24.086Z,100246.75
2023-02-03T11:55:42.823Z,100209.00
2023-02-03T11:57:49.503Z,100222.59
2023-02-03T12:00:09.342Z,100205.03
2023-02-03T12:02:29.344Z,100187.03
2023-02-03T12:04:48.827Z,100179.97
2023-02-03T12:07:06.901Z,100153.53
2023-02-03T12:09:26.301Z,100133.41
2023-02-03T12:11:55.670Z,100152.78
2023-02-03T12:14:09.519Z,100121.22
2023-02-03T12:16:28.056Z,100132.19
2023-02-03T12:18:52.849Z,100124.84
2023-02-03T12:21:06.300Z,100112.00
2023-02-03T12:23:23.732Z,100099.81
2023-02-03T12:25:46.343Z,100089.81
2023-02-03T12:28:06.097Z,100077.72
2023-02-03T12:30:18.726Z,100063.13
2023-02-03T12:32:32.122Z,100045.81
2023-02-03T12:35:07.620Z,100049.75
2023-02-03T12:37:16.730Z,100034.03
2023-02-03T12:39:26.701Z,100015.69
2023-02-03T12:41:37.593Z,99995.13
2023-02-03T12:43:42.766Z,99987.34
2023-02-03T12:45:53.457Z,100004.81
2023-02-03T12:48:17.547Z,99967.91
2023-02-03T12:50:38.158Z,100002.75
2023-02-03T12:52:47.587Z,99991.47
2023-02-03T12:54:58.541Z,99987.31
2023-02-03T12:57:32.376Z,99963.88
2023-02-03T12:59:36.282Z,99966.16
2023-02-03T13:01:45.760Z,99944.22
2023-02-03T13:04:18.624Z,99942.78
2023-02-03T13:06:45.898Z,99928.66
2023-02-03T13:09:00.944Z,99925.84
2023-02-03T13:11:31.349Z,99919.00
2023-02-03T13:13:55.781Z,99882.78
2023-02-03T13:15:57.911Z,99899.75
2023-02-03T13:18:12.552Z,99870.09
2023-02-03T13:20:22.419Z,99874.94
2023-02-03T13:22:24.662Z,99889.31
2023-02-03T13:24:28.598Z,99879.09
2023-02-03T13:26:41.972Z,99878.59
2023-02-03T13:28:59.330Z,99876.47
2023-02-03T13:31:27.399Z,99865.00
2023-02-03T13:33:51.888Z,99860.13
2023-02-03T13:36:10.283Z,99850.41
2023-02-03T13:38:17.473Z,99848.00
2023-02-03T13:40:29.821Z,99835.72
2023-02-03T13:43:06.257Z,99836.03
2023-02-03T13:45:48.320Z,99823.94
2023-02-03T13:47:53.961Z,99810.31
2023-02-03T13:50:00.954Z,99789.63
2023-02-03T13:52:03.329Z,99798.91
2023-02-03T13:54:16.167Z,99793.66
2023-02-03T13:56:24.894Z,99805.88
2023-02-03T13:58:34.335Z,99786.91
2023-02-03T14:00:44.837Z,99794.72
2023-02-03T14:02:55.697Z,99787.75
2023-02-03T14:04:58.575Z,99779.84
2023-02-03T14:07:02.881Z,99770.16
2023-02-03T14:09:21.267Z,99770.50
2023-02-03T14:11:34.637Z,99764.22
2023-02-03T14:13:37.698Z,99754.13
2023-02-03T14:15:39.440Z,99725.13
2023-02-03T14:17:40.799Z,99744.34
2023-02-03T14:19:51.171Z,99741.41
2023-02-03T14:21:55.981Z,99723.78
2023-02-03T14:24:08.718Z,99741.31
2023-02-03T14:26:24.658Z,99748.19
2023-02-03T14:28:37.167Z,99748.19
2023-02-03T14:31:01.645Z,99738.50
2023-02-03T14:33:03.294Z,99745.38
2023-02-03T14:35:16.699Z,99723.59
2023-02-03T14:37:27.309Z,99726.94
2023-02-03T14:39:46.759Z,99741.53
2023-02-03T14:42:21.662Z,99736.97
2023-02-03T14:44:35.847Z,99735.28
2023-02-03T14:46:58.632Z,99737.16
2023-02-03T14:49:18.373Z,99740.28
2023-02-03T14:52:01.440Z,99725.44
2023-02-03T14:54:36.857Z,99729.94
2023-02-03T14:56:47.504Z,99728.91
2023-02-03T14:58:54.843Z,99715.03
2023-02-03T15:00:56.614Z,99722.47
2023-02-03T15:03:07.101Z,99705.97
2023-02-03T15:05:14.501Z,99703.59
2023-02-03T15:07:37.429Z,99715.47
2023-02-03T15:09:40.368Z,99693.38
2023-02-03T15:11:44.695Z,99705.56
2023-02-03T15:13:46.311Z,99680.06
2023-02-03T15:15:50.818Z,99703.59
2023-02-03T15:17:55.310Z,99702.53
2023-02-03T15:19:56.801Z,99677.00
2023-02-03T15:21:58.347Z,99677.34
2023-02-03T15:23:59.857Z,99698.91
2023-02-03T15:26:03.933Z,99695.88
2023-02-03T15:28:13.942Z,99701.41
2023-02-03T15:30:24.727Z,99696.94
2023-02-03T15:32:43.690Z,99690.03
2023-02-03T15:34:48.342Z,99697.22
2023-02-03T15:36:53.352Z,99697.97
2023-02-03T15:39:07.769Z,99702.03
2023-02-03T15:41:33.813Z,99702.53
2023-02-03T15:43:42.179Z,99682.00
2023-02-03T15:46:13.827Z,99706.59
2023-02-03T15:48:32.037Z,99706.06
2023-02-03T15:50:41.472Z,99679.28
2023-02-03T15:52:45.792Z,99707.63
2023-02-03T15:54:51.982Z,99706.94
2023-02-03T15:57:07.716Z,99716.81
2023-02-03T15:59:26.616Z,99723.41
2023-02-03T16:01:28.309Z,99721.13
2023-02-03T16:03:48.842Z,99684.59
2023-02-03T16:05:50.583Z,99707.13
2023-02-03T16:07:52.413Z,99688.09
2023-02-03T16:09:55.652Z,99705.75
2023-02-03T16:12:17.785Z,99710.03
2023-02-03T16:14:33.511Z,99717.66
2023-02-03T16:16:39.993Z,99712.94
2023-02-03T16:18:59.542Z,99712.63
2023-02-03T16:21:01.363Z,99701.50
2023-02-03T16:23:20.638Z,99704.31
2023-02-03T16:25:25.197Z,99713.78
2023-02-03T16:27:26.760Z,99712.31
2023-02-03T16:29:29.607Z,99710.22
2023-02-03T16:31:31.430Z,99703.03
2023-02-03T16:33:32.957Z,99718.56
2023-02-03T16:35:34.348Z,99703.41
2023-02-03T16:37:44.096Z,99720.38
2023-02-03T16:39:45.683Z,99710.47
2023-02-03T16:41:47.234Z,99714.41
2023-02-03T16:43:48.896Z,99715.06
2023-02-03T16:45:55.096Z,99714.19
2023-02-03T16:47:56.545Z,99717.38
2023-02-03T16:49:58.011Z,99720.19
2023-02-03T16:51:59.612Z,99704.78
2023-02-03T16:54:01.016Z,99697.50
2023-02-03T16:56:04.606Z,99715.75
2023-02-03T16:58:06.011Z,99727.13
2023-02-03T17:00:08.211Z,99702.72
2023-02-03T17:02:10.799Z,99692.19
2023-02-03T17:04:12.319Z,99733.03
2023-02-03T17:06:13.927Z,99723.59
2023-02-03T17:08:17.240Z,99713.72
2023-02-03T17:10:18.755Z,99729.41
2023-02-03T17:12:20.163Z,99736.22
2023-02-03T17:14:21.576Z,99709.56
2023-02-03T17:16:25.617Z,99735.53
2023-02-03T17:18:27.109Z,99737.50
2023-02-03T17:20:28.572Z,99745.84
2023-02-03T17:22:30.148Z,99735.09
2023-02-03T17:24:31.544Z,99738.91
2023-02-03T17:26:33.425Z,99757.44
2023-02-03T17:28:35.202Z,99761.00
2023-02-03T17:30:36.660Z,99757.16
2023-02-03T17:32:38.305Z,99752.25
2023-02-03T17:34:39.841Z,99772.00
2023-02-03T17:36:41.278Z,99761.38
2023-02-03T17:55:05.824Z,99797.63
2023-02-03T17:57:07.258Z,99796.06
2023-02-03T17:59:09.722Z,99812.00
2023-02-03T18:01:16.372Z,99803.59
2023-02-03T18:03:17.789Z,99799.84
2023-02-03T18:05:19.402Z,99786.88
2023-02-03T18:07:21.094Z,99811.81
2023-02-03T18:09:22.534Z,99812.84
2023-02-03T18:11:23.926Z,99815.97
2023-02-03T18:13:25.688Z,99823.75
2023-02-03T18:15:27.108Z,99811.97
2023-02-03T18:17:28.539Z,99832.84
2023-02-03T18:19:30.094Z,99792.47
2023-02-03T18:21:32.003Z,99833.25
2023-02-03T18:23:33.456Z,99804.06
2023-02-03T18:25:35.869Z,99833.34
2023-02-03T18:27:37.593Z,99831.47
2023-02-03T18:29:39.012Z,99843.91
2023-02-03T18:31:41.166Z,99831.94
2023-02-03T18:33:47.181Z,99841.66
2023-02-03T18:35:48.571Z,99854.78
2023-02-03T18:37:50.387Z,99835.19
2023-02-03T18:39:51.814Z,99859.69
2023-02-03T18:41:53.227Z,99857.28
2023-02-03T18:43:55.137Z,99863.44
2023-02-03T18:48:16.672Z,99867.94
2023-02-03T18:50:18.078Z,99877.31
2023-02-03T18:52:19.490Z,99882.22
2023-02-03T18:54:21.079Z,99887.97
2023-02-03T18:56:25.399Z,99894.75
2023-02-03T18:58:26.815Z,99893.41
2023-02-03T19:00:28.882Z,99884.44
2023-02-03T19:02:30.648Z,99879.22
2023-02-03T19:04:32.940Z,99895.81
2023-02-03T19:06:35.230Z,99885.47
2023-02-03T19:08:36.622Z,99881.41
2023-02-03T19:10:38.060Z,99895.38
2023-02-03T19:12:39.548Z,99899.44
2023-02-03T19:14:41.079Z,99879.72
2023-02-03T19:16:43.345Z,99896.75
2023-02-03T19:18:45.549Z,99888.19
2023-02-03T19:20:46.930Z,99909.38
2023-02-03T19:22:48.352Z,99914.09
2023-02-03T19:24:49.922Z,99899.88
2023-02-03T19:26:51.299Z,99896.31
2023-02-03T19:28:52.710Z,99908.94
2023-02-03T19:31:00.054Z,99894.34
2023-02-03T19:33:07.288Z,99892.03
2023-02-03T19:35:11.700Z,99876.59
2023-02-03T19:37:13.426Z,99891.75
2023-02-03T19:39:15.345Z,99882.75
2023-02-03T19:41:16.847Z,99893.41
2023-02-03T19:43:18.617Z,99894.44
2023-02-03T19:45:20.036Z,99860.53
2023-02-03T19:47:21.440Z,99899.97
2023-02-03T19:49:23.004Z,99894.75
2023-02-03T19:51:24.404Z,99892.97
2023-02-03T19:53:25.994Z,99916.38
2023-02-03T19:55:27.567Z,99927.66
2023-02-03T19:57:28.999Z,99922.81
2023-02-03T19:59:30.405Z,99903.84
2023-02-03T20:01:32.359Z,99899.47
2023-02-03T20:03:33.807Z,99929.81
2023-02-03T20:05:36.036Z,99920.66
2023-02-03T20:07:37.644Z,99916.56
2023-02-03T20:09:39.182Z,99938.19
2023-02-03T20:11:40.681Z,99950.81
2023-02-03T20:13:42.448Z,99928.06
2023-02-03T20:15:44.764Z,99900.59
2023-02-03T20:17:46.439Z,99941.84
2023-02-03T20:19:47.940Z,99927.41
2023-02-03T20:21:49.352Z,99906.16
2023-02-03T20:23:50.894Z,99933.69
2023-02-03T20:25:53.718Z,99992.69
2023-02-03T20:27:55.621Z,99982.16
2023-02-03T20:29:57.131Z,99958.72
2023-02-03T20:31:58.787Z,99986.09
2023-02-03T20:34:00.326Z,99984.94
2023-02-03T20:36:02.020Z,99965.72
2023-02-03T20:38:03.551Z,100000.81
2023-02-03T20:40:17.763Z,99968.75
2023-02-03T20:42:19.256Z,99980.44
2023-02-03T20:44:20.782Z,99999.03
2023-02-03T20:46:22.262Z,99988.16
2023-02-03T20:48:24.017Z,99979.19
2023-02-03T20:50:37.316Z,99907.03
2023-02-03T20:52:43.079Z,99964.47
2023-02-03T20:54:44.601Z,99985.25
2023-02-03T20:56:46.086Z,99947.88
2023-02-03T20:58:48.144Z,100003.50
2023-02-03T21:00:50.104Z,99995.03
2023-02-03T21:02:51.932Z,99997.44
2023-02-03T21:04:53.361Z,99995.44
2023-02-03T21:06:54.884Z,100002.94
2023-02-03T21:09:08.745Z,99990.16
2023-02-03T21:11:16.687Z,100005.84
2023-02-03T21:13:21.648Z,100016.97
2023-02-03T21:15:29.681Z,100009.00
2023-02-03T21:17:35.564Z,99987.66
2023-02-03T21:19:37.026Z,99994.16
2023-02-03T21:21:40.148Z,99995.63
2023-02-03T21:23:46.878Z,100006.44
2023-02-03T21:25:48.752Z,100013.34
2023-02-03T21:27:51.613Z,100010.59
2023-02-03T21:29:53.341Z,100030.09
2023-02-03T21:31:55.504Z,100024.38
2023-02-03T21:33:58.937Z,100030.88
2023-02-03T21:36:00.620Z,100014.13
2023-02-03T21:38:19.248Z,100045.69
2023-02-03T21:40:23.580Z,100011.50
2023-02-03T21:42:34.298Z,100052.91
2023-02-03T21:44:35.845Z,100048.75
2023-02-03T21:46:37.375Z,100048.19
2023-02-03T21:48:40.411Z,100068.44
2023-02-03T21:50:42.004Z,100070.91
2023-02-03T21:52:43.776Z,100079.59
2023-02-03T21:54:45.186Z,100070.44
2023-02-03T21:56:46.754Z,100059.69
2023-02-03T21:58:50.402Z,100074.19
2023-02-03T22:01:04.721Z,100094.09
2023-02-03T22:03:06.652Z,100082.56
2023-02-03T22:05:15.374Z,100074.03
2023-02-03T22:07:18.141Z,100051.41
2023-02-03T22:09:21.868Z,100109.09
2023-02-03T22:11:24.545Z,100107.34
2023-02-03T22:13:25.937Z,100063.16
2023-02-03T22:15:27.588Z,100063.63
2023-02-03T22:17:29.224Z,100078.78
2023-02-03T22:19:30.628Z,100090.34
2023-02-03T22:21:32.248Z,100049.03
2023-02-03T22:23:33.909Z,100081.50
2023-02-03T22:25:35.358Z,100081.63
2023-02-03T22:27:37.038Z,100124.56
2023-02-03T22:29:38.627Z,100110.25
2023-02-03T22:31:40.145Z,100103.66
2023-02-03T22:33:41.986Z,100126.66
2023-02-03T22:35:43.529Z,100095.91
2023-02-03T22:37:44.960Z,100106.06
2023-02-03T22:39:46.545Z,100144.41
2023-02-03T22:41:48.187Z,100127.22
2023-02-03T22:43:49.602Z,100162.94
2023-02-03T22:45:51.261Z,100177.19
2023-02-03T22:47:52.743Z,100169.44
2023-02-03T22:49:54.143Z,100123.38
2023-02-03T22:51:55.773Z,100156.75
2023-02-03T22:53:57.267Z,100183.28
2023-02-03T22:55:58.700Z,100212.59
2023-02-03T22:58:00.212Z,100178.34
2023-02-03T23:00:01.770Z,100226.94
2023-02-03T23:02:03.299Z,100233.81
2023-02-03T23:04:04.897Z,100205.56
2023-02-03T23:06:06.557Z,100166.38
2023-02-03T23:08:07.944Z,100238.28
2023-02-03T23:10:12.303Z,100250.84
2023-02-03T23:12:13.750Z,100235.44
2023-02-03T23:14:15.159Z,100230.16
2023-02-03T23:16:16.724Z,100201.81
2023-02-03T23:18:18.243Z,100266.00
2023-02-03T23:20:19.758Z,100288.91
2023-02-03T23:22:21.255Z,100308.22
2023-02-03T23:24:22.727Z,100279.97
2023-02-03T23:26:24.132Z,100298.84
2023-02-03T23:28:25.557Z,100308.69
2023-02-03T23:30:27.054Z,100331.41
2023-02-03T23:32:28.490Z,100316.81
2023-02-03T23:34:30.036Z,100289.38
2023-02-03T23:36:32.581Z,100355.47
2023-02-03T23:38:34.015Z,100347.53
2023-02-03T23:40:35.462Z,100348.03
2023-02-03T23:42:36.951Z,100361.47
2023-02-03T23:44:38.395Z,100360.97
2023-02-03T23:46:39.834Z,100344.69
2023-02-03T23:48:42.011Z,100383.97
2023-02-03T23:50:43.441Z,100399.66
2023-02-03T23:52:44.943Z,100362.53
2023-02-03T23:54:46.547Z,100407.66
2023-02-03T23:56:47.992Z,100375.72
2023-02-03T23:58:49.535Z,100418.38
